createdAt,value
2022-09-01T00:00:14.482Z,2.90
2022-09-01T00:03:01.142Z,2.80
2022-09-01T00:05:32.329Z,2.60
2022-09-01T00:10:29.406Z,2.80
2022-09-01T00:12:56.763Z,2.90
2022-09-01T00:15:25.163Z,2.80
2022-09-01T00:17:52.446Z,2.90
2022-09-01T00:20:20.949Z,2.60
2022-09-01T00:22:48.932Z,3.00
2022-09-01T00:25:19.525Z,2.60
2022-09-01T00:27:49.076Z,2.80
2022-09-01T00:30:16.670Z,2.90
2022-09-01T00:32:46.384Z,2.90
2022-09-01T00:35:18.917Z,3.20
2022-09-01T00:37:46.469Z,3.20
2022-09-01T00:40:16.748Z,3.30
2022-09-01T00:42:44.589Z,2.70
2022-09-01T00:45:13.661Z,2.90
2022-09-01T00:47:41.772Z,3.10
2022-09-01T00:50:12.731Z,2.90
2022-09-01T00:52:50.506Z,2.90
2022-09-01T00:55:25.648Z,2.80
2022-09-01T00:57:53.311Z,2.90
2022-09-01T01:00:28.682Z,3.00
2022-09-01T01:02:57.064Z,2.80
2022-09-01T01:05:32.620Z,2.90
2022-09-01T01:08:02.191Z,3.00
2022-09-01T01:10:32.560Z,2.70
2022-09-01T01:13:08.395Z,2.80
2022-09-01T01:15:36.552Z,3.20
2022-09-01T01:18:04.308Z,3.00
2022-09-01T01:20:52.925Z,2.80
2022-09-01T01:23:48.369Z,2.80
2022-09-01T01:26:15.824Z,3.30
2022-09-01T01:28:44.805Z,3.10
2022-09-01T01:31:22.535Z,3.40
2022-09-01T01:33:53.727Z,3.00
2022-09-01T01:39:11.889Z,2.80
2022-09-01T01:41:43.791Z,3.10
2022-09-01T01:44:17.924Z,3.10
2022-09-01T01:46:52.288Z,3.20
2022-09-01T01:49:24.362Z,3.00
2022-09-01T01:51:55.570Z,3.60
2022-09-01T01:54:26.627Z,2.90
2022-09-01T01:56:55.221Z,3.40
2022-09-01T01:59:24.350Z,2.80
2022-09-01T02:01:52.712Z,3.20
2022-09-01T02:04:21.037Z,2.90
2022-09-01T02:06:49.764Z,3.10
2022-09-01T02:09:20.302Z,2.80
2022-09-01T02:11:48.850Z,2.80
2022-09-01T02:14:20.086Z,2.90
2022-09-01T02:16:47.697Z,2.90
2022-09-01T02:19:19.163Z,3.10
2022-09-01T02:21:55.440Z,3.10
2022-09-01T02:24:28.546Z,2.80
2022-09-01T02:26:58.835Z,3.30
2022-09-01T02:29:28.352Z,3.20
2022-09-01T02:31:56.968Z,2.80
2022-09-01T02:34:28.588Z,2.70
2022-09-01T02:36:57.025Z,2.90
2022-09-01T02:39:33.077Z,3.00
2022-09-01T02:42:04.156Z,2.80
2022-09-01T02:44:32.293Z,2.90
2022-09-01T02:47:01.263Z,3.10
2022-09-01T02:49:29.412Z,3.00
2022-09-01T02:52:00.816Z,2.80
2022-09-01T02:54:30.437Z,3.20
2022-09-01T02:56:57.939Z,3.00
2022-09-01T02:59:28.500Z,3.30
2022-09-01T03:01:59.394Z,3.30
2022-09-01T03:04:26.862Z,4.10
2022-09-01T03:06:58.386Z,3.40
2022-09-01T03:09:25.868Z,3.40
2022-09-01T03:11:54.135Z,3.40
2022-09-01T03:14:23.794Z,3.10
2022-09-01T03:16:51.959Z,3.30
2022-09-01T03:19:20.042Z,3.40
2022-09-01T03:21:48.330Z,3.30
2022-09-01T03:24:18.714Z,3.20
2022-09-01T03:26:49.946Z,3.40
2022-09-01T03:29:18.992Z,3.10
2022-09-01T03:31:47.072Z,3.40
2022-09-01T03:34:21.289Z,2.80
2022-09-01T03:36:51.148Z,3.30
2022-09-01T03:39:26.630Z,3.10
2022-09-01T03:41:54.903Z,3.40
2022-09-01T03:44:22.298Z,2.90
2022-09-01T03:46:50.237Z,2.70
2022-09-01T03:49:24.652Z,3.10
2022-09-01T03:51:56.036Z,2.90
2022-09-01T03:54:27.518Z,2.90
2022-09-01T03:56:55.010Z,2.70
2022-09-01T03:59:24.790Z,3.20
2022-09-01T04:01:52.490Z,2.90
2022-09-01T04:04:20.534Z,3.20
2022-09-01T04:06:48.734Z,3.30
2022-09-01T04:09:16.310Z,5.00
2022-09-01T04:11:48.044Z,4.50
2022-09-01T04:14:16.759Z,2.70
2022-09-01T04:17:04.423Z,2.70
2022-09-01T04:19:38.950Z,3.20
2022-09-01T04:22:07.583Z,2.90
2022-09-01T04:24:45.295Z,4.40
2022-09-01T04:27:14.420Z,3.40
2022-09-01T04:29:42.737Z,3.50
2022-09-01T04:32:15.396Z,3.80
2022-09-01T04:34:45.378Z,4.80
2022-09-01T04:37:21.620Z,3.60
2022-09-01T04:39:59.002Z,3.40
2022-09-01T04:42:31.416Z,3.80
2022-09-01T04:45:05.095Z,4.00
2022-09-01T04:47:41.760Z,3.30
2022-09-01T04:50:14.384Z,3.30
2022-09-01T04:52:47.283Z,3.20
2022-09-01T04:55:29.716Z,3.10
2022-09-01T04:58:03.162Z,3.00
2022-09-01T05:00:33.106Z,3.60
2022-09-01T05:03:04.063Z,3.30
2022-09-01T05:05:50.439Z,3.10
2022-09-01T05:08:23.370Z,3.20
2022-09-01T05:10:54.608Z,2.90
2022-09-01T05:13:33.501Z,3.30
2022-09-01T05:16:12.374Z,3.30
2022-09-01T05:18:47.235Z,3.00
2022-09-01T05:21:21.718Z,3.00
2022-09-01T05:23:51.297Z,3.10
2022-09-01T05:26:26.151Z,3.40
2022-09-01T05:29:00.861Z,3.50
2022-09-01T05:31:34.363Z,4.10
2022-09-01T05:34:02.894Z,2.80
2022-09-01T05:36:33.975Z,3.00
2022-09-01T05:39:05.897Z,3.10
2022-09-01T05:41:35.206Z,2.90
2022-09-01T05:44:06.657Z,2.90
2022-09-01T05:46:37.887Z,3.40
2022-09-01T05:49:13.763Z,3.10
2022-09-01T05:51:52.699Z,3.20
2022-09-01T05:54:25.633Z,3.30
2022-09-01T05:57:08.126Z,2.80
2022-09-01T05:59:53.269Z,4.00
2022-09-01T06:02:23.638Z,3.40
2022-09-01T06:04:56.861Z,3.50
2022-09-01T06:07:28.142Z,3.50
2022-09-01T06:09:56.645Z,3.60
2022-09-01T06:12:25.064Z,3.30
2022-09-01T06:14:54.566Z,3.40
2022-09-01T06:17:25.532Z,3.60
2022-09-01T06:19:58.136Z,3.30
2022-09-01T06:22:28.388Z,3.80
2022-09-01T06:25:01.122Z,3.50
2022-09-01T06:27:42.201Z,3.40
2022-09-01T06:30:23.510Z,2.90
2022-09-01T06:33:01.903Z,2.70
2022-09-01T06:35:30.059Z,2.80
2022-09-01T06:37:58.336Z,2.70
2022-09-01T06:40:42.454Z,3.20
2022-09-01T06:43:13.731Z,3.10
2022-09-01T06:45:54.157Z,3.70
2022-09-01T06:48:23.277Z,4.80
2022-09-01T06:53:44.919Z,4.70
2022-09-01T06:56:16.371Z,3.80
2022-09-01T06:58:48.859Z,3.50
2022-09-01T07:01:19.247Z,3.70
2022-09-01T07:03:51.659Z,3.70
2022-09-01T07:13:06.877Z,3.00
2022-09-01T07:18:30.551Z,3.30
2022-09-01T07:21:05.461Z,3.30
2022-09-01T07:26:28.248Z,2.70
2022-09-01T07:29:01.292Z,3.30
2022-09-01T07:34:41.928Z,2.80
2022-09-01T07:42:31.191Z,3.50
2022-09-01T07:43:24.103Z,2.60
2022-09-01T07:47:19.619Z,2.80
2022-09-01T07:52:35.557Z,2.70
2022-09-01T07:57:34.394Z,2.90
2022-09-01T08:00:06.243Z,2.90
2022-09-01T08:02:46.722Z,2.80
2022-09-01T08:05:22.337Z,3.10
2022-09-01T08:07:52.752Z,2.90
2022-09-01T08:10:33.586Z,3.30
2022-09-01T08:13:02.095Z,3.20
2022-09-01T08:18:51.338Z,5.10
2022-09-01T08:21:28.923Z,4.10
2022-09-01T08:24:03.226Z,3.90
2022-09-01T08:26:34.033Z,4.00
2022-09-01T08:29:03.952Z,3.40
2022-09-01T08:31:37.930Z,4.20
2022-09-01T08:34:05.762Z,3.50
2022-09-01T08:36:35.427Z,3.70
2022-09-01T08:39:03.628Z,3.50
2022-09-01T08:41:52.159Z,3.50
2022-09-01T08:44:28.877Z,2.60
2022-09-01T08:47:13.687Z,2.60
2022-09-01T08:49:46.590Z,3.10
2022-09-01T08:52:50.084Z,3.30
2022-09-01T08:55:38.303Z,3.00
2022-09-01T08:58:06.673Z,3.30
2022-09-01T09:01:00.765Z,2.70
2022-09-01T09:03:59.395Z,3.30
2022-09-01T09:06:41.406Z,3.30
2022-09-01T09:09:10.004Z,3.30
2022-09-01T09:12:16.413Z,3.10
2022-09-01T09:15:32.975Z,3.30
2022-09-01T09:18:38.438Z,2.80
2022-09-01T09:21:20.941Z,3.10
2022-09-01T09:24:10.416Z,3.10
2022-09-01T09:26:45.027Z,2.90
2022-09-01T09:29:13.006Z,2.80
2022-09-01T09:31:50.045Z,2.90
2022-09-01T09:34:35.902Z,2.30
2022-09-01T09:37:22.135Z,2.60
2022-09-01T09:40:21.123Z,2.80
2022-09-01T09:42:54.734Z,2.20
2022-09-01T09:45:34.008Z,2.20
2022-09-01T09:48:30.319Z,1.90
2022-09-01T09:51:20.745Z,1.70
2022-09-01T09:53:50.075Z,1.60
2022-09-01T09:56:24.064Z,1.70
2022-09-01T09:58:52.940Z,1.20
2022-09-01T10:01:24.150Z,1.30
2022-09-01T10:04:01.249Z,1.50
2022-09-01T10:06:50.322Z,1.70
2022-09-01T10:09:24.378Z,2.50
2022-09-01T10:11:55.631Z,1.30
2022-09-01T10:14:53.336Z,3.10
2022-09-01T10:17:30.486Z,1.60
2022-09-01T10:20:07.690Z,1.60
2022-09-01T10:22:50.736Z,1.60
2022-09-01T10:25:24.232Z,1.90
2022-09-01T10:28:13.173Z,1.70
2022-09-01T10:30:45.578Z,1.50
2022-09-01T10:33:20.835Z,1.50
2022-09-01T10:35:53.183Z,1.80
2022-09-01T10:38:28.828Z,1.60
2022-09-01T10:41:09.008Z,2.60
2022-09-01T10:43:45.375Z,2.10
2022-09-01T10:46:42.173Z,2.60
2022-09-01T10:49:29.659Z,1.80
2022-09-01T10:52:03.243Z,1.80
2022-09-01T10:54:51.079Z,2.00
2022-09-01T10:57:30.620Z,2.10
2022-09-01T11:00:38.697Z,2.30
2022-09-01T11:06:12.641Z,1.70
2022-09-01T11:08:58.476Z,1.80
2022-09-01T11:11:49.303Z,2.30
2022-09-01T11:14:26.411Z,2.00
2022-09-01T11:17:20.721Z,2.60
2022-09-01T11:20:00.410Z,3.00
2022-09-01T11:22:44.774Z,2.10
2022-09-01T11:25:38.702Z,1.80
2022-09-01T11:28:18.151Z,2.00
2022-09-01T11:31:05.888Z,1.80
2022-09-01T11:33:56.230Z,1.80
2022-09-01T11:36:29.576Z,1.90
2022-09-01T11:39:22.783Z,1.90
2022-09-01T11:42:04.725Z,1.90
2022-09-01T11:44:51.151Z,1.50
2022-09-01T11:47:40.088Z,1.70
2022-09-01T11:50:17.402Z,2.20
2022-09-01T11:53:07.973Z,1.90
2022-09-01T11:56:04.508Z,1.60
2022-09-01T11:58:38.792Z,1.90
2022-09-01T12:01:31.202Z,1.80
2022-09-01T12:04:19.677Z,1.80
2022-09-01T12:06:58.259Z,3.10
2022-09-01T12:09:42.826Z,2.80
2022-09-01T12:12:49.597Z,2.00
2022-09-01T12:15:26.952Z,1.80
2022-09-01T12:18:18.816Z,2.40
2022-09-01T12:23:39.942Z,1.80
2022-09-01T12:26:14.620Z,1.80
2022-09-01T12:28:42.614Z,2.20
2022-09-01T12:31:16.949Z,2.20
2022-09-01T12:33:45.473Z,1.90
2022-09-01T12:36:24.377Z,2.40
2022-09-01T12:38:55.574Z,1.80
2022-09-01T12:41:41.534Z,1.90
2022-09-01T12:44:39.788Z,1.90
2022-09-01T12:47:14.293Z,1.80
2022-09-01T12:49:50.789Z,1.90
2022-09-01T12:52:36.647Z,3.10
2022-09-01T12:55:05.880Z,1.90
2022-09-01T12:57:39.995Z,1.70
2022-09-01T13:00:21.844Z,1.40
2022-09-01T13:02:52.724Z,1.80
2022-09-01T13:05:41.709Z,1.70
2022-09-01T13:08:10.519Z,2.20
2022-09-01T13:10:48.866Z,1.80
2022-09-01T13:13:17.501Z,1.70
2022-09-01T13:15:51.255Z,2.50
2022-09-01T13:18:22.193Z,1.80
2022-09-01T13:20:51.152Z,1.90
2022-09-01T13:23:20.480Z,1.50
2022-09-01T13:25:48.534Z,2.10
2022-09-01T13:28:17.623Z,2.50
2022-09-01T13:31:28.327Z,2.10
2022-09-01T13:36:44.457Z,2.10
2022-09-01T13:39:15.449Z,1.90
2022-09-01T13:41:43.306Z,2.20
2022-09-01T13:44:11.142Z,2.00
2022-09-01T13:46:59.093Z,1.80
2022-09-01T13:49:43.517Z,3.50
2022-09-01T13:52:12.672Z,1.90
2022-09-01T13:54:40.159Z,2.20
2022-09-01T13:57:07.608Z,1.90
2022-09-01T13:59:35.050Z,2.10
2022-09-01T14:02:02.898Z,2.00
2022-09-01T14:04:30.457Z,1.60
2022-09-01T14:06:59.203Z,1.90
2022-09-01T14:09:26.738Z,2.10
2022-09-01T14:11:55.107Z,2.20
2022-09-01T14:14:23.101Z,2.10
2022-09-01T14:16:50.502Z,1.80
2022-09-01T14:19:18.520Z,2.50
2022-09-01T14:21:46.984Z,2.00
2022-09-01T14:24:18.576Z,1.60
2022-09-01T14:26:47.430Z,2.10
2022-09-01T14:29:16.193Z,1.80
2022-09-01T14:31:44.621Z,1.30
2022-09-01T14:34:12.595Z,2.00
2022-09-01T14:36:45.036Z,1.90
2022-09-01T14:39:15.763Z,1.80
2022-09-01T14:41:43.515Z,1.90
2022-09-01T14:44:11.099Z,1.60
2022-09-01T14:46:39.389Z,2.50
2022-09-01T14:49:07.508Z,1.80
2022-09-01T14:54:26.007Z,1.70
2022-09-01T14:59:41.475Z,2.00
2022-09-01T15:02:10.118Z,1.70
2022-09-01T15:04:37.631Z,1.50
2022-09-01T15:07:05.987Z,1.80
2022-09-01T15:09:33.945Z,1.60
2022-09-01T15:12:01.585Z,2.30
2022-09-01T15:14:29.227Z,1.80
2022-09-01T15:16:57.127Z,1.70
2022-09-01T15:19:29.573Z,1.50
2022-09-01T15:22:00.680Z,1.90
2022-09-01T15:24:28.177Z,2.20
2022-09-01T15:26:56.255Z,2.40
2022-09-01T15:29:24.170Z,1.90
2022-09-01T15:31:53.460Z,1.70
2022-09-01T15:34:20.803Z,2.00
2022-09-01T15:36:48.059Z,1.50
2022-09-01T15:39:15.573Z,1.70
2022-09-01T15:41:43.888Z,1.70
2022-09-01T15:44:11.291Z,1.60
2022-09-01T15:46:40.176Z,1.70
2022-09-01T15:49:10.270Z,1.70
2022-09-01T15:51:41.762Z,1.60
2022-09-01T15:54:18.962Z,1.60
2022-09-01T15:56:47.522Z,1.90
2022-09-01T15:59:15.716Z,2.10
2022-09-01T16:01:45.683Z,2.00
2022-09-01T16:04:19.944Z,1.90
2022-09-01T16:06:50.653Z,1.80
2022-09-01T16:09:20.806Z,1.70
2022-09-01T16:11:48.295Z,1.90
2022-09-01T16:14:15.981Z,2.00
2022-09-01T16:17:04.475Z,2.20
2022-09-01T16:19:53.748Z,2.20
2022-09-01T16:22:57.629Z,2.80
2022-09-01T16:25:31.697Z,2.90
2022-09-01T16:28:10.736Z,2.90
2022-09-01T16:30:40.281Z,2.60
2022-09-01T16:33:19.536Z,3.20
2022-09-01T16:36:28.484Z,3.20
2022-09-01T16:39:26.252Z,3.40
2022-09-01T16:42:48.365Z,2.90
2022-09-01T16:45:48.899Z,3.40
2022-09-01T16:48:46.759Z,3.50
2022-09-01T16:51:35.817Z,3.80
2022-09-01T16:54:54.142Z,3.30
2022-09-01T16:58:04.462Z,3.60
2022-09-01T17:01:38.982Z,3.60
2022-09-01T17:04:59.895Z,3.70
2022-09-01T17:07:37.758Z,3.90
2022-09-01T17:10:33.328Z,3.70
2022-09-01T17:13:48.965Z,4.20
2022-09-01T17:16:41.796Z,4.20
2022-09-01T17:19:17.184Z,3.90
2022-09-01T17:22:08.796Z,3.90
2022-09-01T17:24:43.930Z,3.70
2022-09-01T17:27:19.821Z,4.70
2022-09-01T17:29:53.473Z,4.20
2022-09-01T17:33:17.320Z,3.80
2022-09-01T17:36:18.269Z,3.30
2022-09-01T17:39:48.908Z,3.10
2022-09-01T17:43:29.009Z,2.90
2022-09-01T17:46:42.325Z,2.60
2022-09-01T17:50:05.483Z,2.70
2022-09-01T17:53:10.547Z,2.30
2022-09-01T17:55:51.160Z,2.30
2022-09-01T17:58:47.935Z,2.20
2022-09-01T18:01:27.960Z,2.20
2022-09-01T18:04:47.525Z,1.90
2022-09-01T18:07:31.542Z,1.90
2022-09-01T18:10:02.089Z,1.80
2022-09-01T18:12:35.278Z,2.20
2022-09-01T18:15:14.186Z,1.90
2022-09-01T18:17:49.576Z,1.90
2022-09-01T18:20:25.301Z,1.90
2022-09-01T18:22:58.625Z,1.90
2022-09-01T18:25:48.048Z,1.90
2022-09-01T18:28:16.448Z,1.70
2022-09-01T18:31:30.521Z,2.10
2022-09-01T18:34:10.987Z,2.10
2022-09-01T18:37:14.114Z,1.60
2022-09-01T18:40:00.008Z,1.80
2022-09-01T18:43:26.078Z,2.00
2022-09-01T18:46:03.733Z,1.60
2022-09-01T18:48:49.694Z,1.50
2022-09-01T18:51:29.599Z,1.80
2022-09-01T18:54:28.797Z,1.80
2022-09-01T18:57:03.540Z,1.50
2022-09-01T18:59:45.544Z,1.90
2022-09-01T19:02:37.944Z,1.70
2022-09-01T19:05:20.148Z,1.70
2022-09-01T19:08:08.079Z,1.80
2022-09-01T19:10:47.480Z,1.80
2022-09-01T19:13:55.499Z,1.90
2022-09-01T19:16:32.854Z,1.90
2022-09-01T19:19:24.765Z,1.80
2022-09-01T19:21:55.414Z,1.90
2022-09-01T19:24:44.651Z,2.40
2022-09-01T19:27:34.596Z,2.20
2022-09-01T19:30:06.348Z,2.20
2022-09-01T19:32:35.760Z,1.80
2022-09-01T19:35:13.223Z,2.10
2022-09-01T19:37:43.653Z,2.40
2022-09-01T19:40:11.989Z,2.20
2022-09-01T19:42:43.897Z,2.10
2022-09-01T19:45:40.709Z,2.30
2022-09-01T19:48:23.742Z,2.20
2022-09-01T19:51:02.564Z,1.90
2022-09-01T19:53:50.174Z,1.70
2022-09-01T19:56:31.387Z,1.70
2022-09-01T20:00:06.562Z,1.90
2022-09-01T20:02:54.670Z,1.90
2022-09-01T20:05:31.849Z,1.80
2022-09-01T20:08:11.773Z,1.90
2022-09-01T20:11:00.886Z,1.90
2022-09-01T20:14:12.110Z,1.80
2022-09-01T20:16:50.369Z,2.10
2022-09-01T20:19:41.636Z,2.00
2022-09-01T20:22:31.324Z,2.10
2022-09-01T20:25:17.612Z,2.10
2022-09-01T20:28:12.878Z,2.00
2022-09-01T20:30:50.682Z,2.10
2022-09-01T20:34:10.624Z,1.70
2022-09-01T20:37:06.248Z,2.00
2022-09-01T20:39:55.889Z,1.90
2022-09-01T20:42:43.864Z,2.10
2022-09-01T20:45:22.773Z,2.10
2022-09-01T20:48:02.690Z,1.90
2022-09-01T20:50:43.163Z,1.80
2022-09-01T20:56:19.377Z,2.00
2022-09-01T20:59:00.931Z,2.10
2022-09-01T21:01:42.720Z,1.80
2022-09-01T21:04:19.848Z,1.90
2022-09-01T21:08:07.936Z,2.10
2022-09-01T21:10:58.660Z,2.00
2022-09-01T21:13:45.398Z,2.00
2022-09-01T21:16:31.253Z,1.80
2022-09-01T21:19:20.700Z,2.10
2022-09-01T21:22:14.485Z,1.90
2022-09-01T21:24:44.086Z,1.80
2022-09-01T21:27:24.623Z,1.60
2022-09-01T21:30:05.695Z,2.00
2022-09-01T21:32:34.504Z,1.70
2022-09-01T21:35:06.934Z,2.10
2022-09-01T21:37:34.551Z,1.90
2022-09-01T21:40:02.351Z,1.90
2022-09-01T21:42:36.127Z,1.90
2022-09-01T21:45:06.559Z,1.80
2022-09-01T21:47:34.246Z,2.00
2022-09-01T21:50:01.816Z,2.00
2022-09-01T21:52:41.688Z,2.20
2022-09-01T21:55:11.558Z,1.90
2022-09-01T21:57:40.304Z,1.90
2022-09-01T22:00:17.477Z,1.90
2022-09-01T22:02:47.345Z,2.20
2022-09-01T22:05:16.587Z,2.00
2022-09-01T22:07:46.844Z,1.90
2022-09-01T22:10:19.189Z,2.00
2022-09-01T22:12:50.397Z,1.80
2022-09-01T22:17:52.942Z,1.80
2022-09-01T22:20:23.560Z,1.80
2022-09-01T22:22:54.952Z,1.90
2022-09-01T22:25:24.111Z,2.20
2022-09-01T22:27:52.894Z,2.20
2022-09-01T22:30:21.783Z,1.90
2022-09-01T22:32:51.145Z,2.30
2022-09-01T22:35:20.944Z,2.30
2022-09-01T22:37:49.848Z,2.60
2022-09-01T22:40:18.894Z,2.60
2022-09-01T22:42:47.753Z,2.20
2022-09-01T22:45:16.583Z,2.20
2022-09-01T22:47:45.232Z,2.40
2022-09-01T22:50:14.179Z,2.30
2022-09-01T22:52:43.964Z,2.60
2022-09-01T22:55:13.891Z,2.30
2022-09-01T22:59:24.835Z,2.50
2022-09-01T23:01:52.704Z,2.30
2022-09-01T23:04:20.898Z,2.90
2022-09-01T23:06:53.563Z,2.50
2022-09-01T23:09:21.265Z,2.20
2022-09-01T23:11:50.109Z,2.40
2022-09-01T23:14:18.191Z,2.40
2022-09-01T23:16:46.747Z,2.00
2022-09-01T23:19:20.606Z,2.40
2022-09-01T23:21:48.442Z,2.30
2022-09-01T23:24:15.978Z,2.20
2022-09-01T23:26:47.910Z,2.10
2022-09-01T23:29:15.952Z,2.30
2022-09-01T23:31:43.822Z,2.40
2022-09-01T23:34:12.824Z,2.60
2022-09-01T23:36:42.011Z,2.60
2022-09-01T23:39:09.380Z,2.30
2022-09-01T23:41:37.501Z,2.20
2022-09-01T23:44:10.624Z,3.70
2022-09-01T23:46:44.626Z,5.50
2022-09-01T23:49:14.121Z,7.50
2022-09-01T23:51:41.783Z,5.00
2022-09-01T23:54:10.047Z,5.80
2022-09-01T23:56:37.954Z,3.90
2022-09-01T23:59:06.680Z,4.70
